createdAt,value
2022-09-28T00:01:29.561Z,99455.25
2022-09-28T00:03:59.998Z,99459.50
2022-09-28T00:06:28.441Z,99460.94
2022-09-28T00:08:55.419Z,99460.53
2022-09-28T00:11:23.310Z,99464.22
2022-09-28T00:13:56.557Z,99465.25
2022-09-28T00:16:26.963Z,99460.56
2022-09-28T00:18:54.192Z,99457.34
2022-09-28T00:21:22.861Z,99460.19
2022-09-28T00:24:17.097Z,99454.47
2022-09-28T00:26:45.610Z,99457.09
2022-09-28T00:29:25.005Z,99443.69
2022-09-28T00:31:53.487Z,99451.22
2022-09-28T00:34:20.721Z,99443.13
2022-09-28T00:36:48.149Z,99446.56
2022-09-28T00:39:16.009Z,99446.34
2022-09-28T00:41:43.145Z,99446.16
2022-09-28T00:44:24.760Z,99444.34
2022-09-28T00:47:17.074Z,99441.91
2022-09-28T00:50:12.715Z,99441.88
2022-09-28T00:52:48.585Z,99435.16
2022-09-28T00:55:18.086Z,99433.56
2022-09-28T00:57:50.877Z,99428.69
2022-09-28T01:00:17.845Z,99428.88
2022-09-28T01:02:45.817Z,99427.25
2022-09-28T01:05:12.964Z,99432.72
2022-09-28T01:07:40.236Z,99429.25
2022-09-28T01:10:07.762Z,99434.75
2022-09-28T01:12:34.339Z,99434.53
2022-09-28T01:15:01.894Z,99431.31
2022-09-28T01:17:50.916Z,99427.66
2022-09-28T01:20:34.356Z,99423.19
2022-09-28T01:23:43.705Z,99426.84
2022-09-28T01:26:25.453Z,99421.97
2022-09-28T01:29:03.561Z,99412.81
2022-09-28T01:31:33.026Z,99423.97
2022-09-28T01:34:07.701Z,99419.13
2022-09-28T01:36:40.208Z,99422.97
2022-09-28T01:39:10.120Z,99418.06
2022-09-28T01:41:40.062Z,99423.94
2022-09-28T01:44:08.862Z,99412.59
2022-09-28T01:46:44.829Z,99420.69
2022-09-28T01:49:17.364Z,99416.03
2022-09-28T01:51:54.942Z,99418.91
2022-09-28T01:54:26.292Z,99420.69
2022-09-28T01:57:03.199Z,99421.53
2022-09-28T01:59:31.188Z,99422.72
2022-09-28T02:02:13.470Z,99408.72
2022-09-28T02:04:48.213Z,99404.44
2022-09-28T02:07:20.403Z,99406.47
2022-09-28T02:09:51.688Z,99403.22
2022-09-28T02:12:25.198Z,99399.56
2022-09-28T02:14:55.336Z,99402.19
2022-09-28T02:17:21.960Z,99399.97
2022-09-28T02:19:48.729Z,99399.97
2022-09-28T02:22:25.763Z,99397.13
2022-09-28T02:24:59.734Z,99397.13
2022-09-28T02:27:43.368Z,99395.72
2022-09-28T02:30:10.511Z,99388.63
2022-09-28T02:32:42.638Z,99390.25
2022-09-28T02:35:11.787Z,99390.66
2022-09-28T02:37:39.935Z,99390.25
2022-09-28T02:40:16.997Z,99390.84
2022-09-28T02:42:48.813Z,99394.91
2022-09-28T02:45:46.271Z,99386.81
2022-09-28T02:48:43.990Z,99384.16
2022-09-28T02:51:39.485Z,99381.31
2022-09-28T02:54:09.113Z,99379.88
2022-09-28T02:56:52.455Z,99386.97
2022-09-28T02:59:31.127Z,99373.19
2022-09-28T03:02:20.614Z,99375.19
2022-09-28T03:05:08.970Z,99380.47
2022-09-28T03:07:45.566Z,99378.06
2022-09-28T03:10:34.139Z,99376.22
2022-09-28T03:13:01.808Z,99376.41
2022-09-28T03:15:30.954Z,99372.78
2022-09-28T03:17:58.623Z,99365.84
2022-09-28T03:20:26.711Z,99371.38
2022-09-28T03:23:12.735Z,99368.09
2022-09-28T03:25:40.847Z,99365.06
2022-09-28T03:28:07.455Z,99360.81
2022-09-28T03:30:34.040Z,99362.81
2022-09-28T03:33:02.490Z,99361.78
2022-09-28T03:35:29.069Z,99357.72
2022-09-28T03:37:56.819Z,99354.47
2022-09-28T03:40:23.542Z,99355.50
2022-09-28T03:42:50.225Z,99354.06
2022-09-28T03:45:16.851Z,99343.09
2022-09-28T03:47:48.655Z,99352.66
2022-09-28T03:50:15.924Z,99340.28
2022-09-28T03:52:42.829Z,99337.44
2022-09-28T03:55:09.697Z,99330.09
2022-09-28T03:57:36.358Z,99332.56
2022-09-28T04:00:04.904Z,99331.75
2022-09-28T04:02:31.560Z,99328.09
2022-09-28T04:04:58.226Z,99329.72
2022-09-28T04:07:28.972Z,99328.09
2022-09-28T04:09:57.477Z,99329.72
2022-09-28T04:12:24.060Z,99325.66
2022-09-28T04:14:50.995Z,99318.75
2022-09-28T04:17:17.701Z,99316.91
2022-09-28T04:19:44.271Z,99319.13
2022-09-28T04:22:10.822Z,99315.28
2022-09-28T04:24:37.426Z,99324.63
2022-09-28T04:27:22.532Z,99315.91
2022-09-28T04:29:49.098Z,99320.75
2022-09-28T04:32:15.684Z,99319.97
2022-09-28T04:34:44.289Z,99318.31
2022-09-28T04:37:11.157Z,99317.72
2022-09-28T04:39:37.959Z,99323.59
2022-09-28T04:42:04.768Z,99326.25
2022-09-28T04:44:31.348Z,99323.59
2022-09-28T04:47:00.649Z,99325.44
2022-09-28T04:49:30.892Z,99326.47
2022-09-28T04:51:57.456Z,99332.16
2022-09-28T04:54:24.055Z,99336.22
2022-09-28T04:56:51.214Z,99333.75
2022-09-28T04:59:17.875Z,99338.03
2022-09-28T05:01:44.734Z,99340.06
2022-09-28T05:04:11.303Z,99346.38
2022-09-28T05:06:37.886Z,99349.59
2022-09-28T05:09:04.484Z,99349.00
2022-09-28T05:11:31.100Z,99354.03
2022-09-28T05:13:57.741Z,99356.06
2022-09-28T05:16:26.196Z,99348.16
2022-09-28T05:18:56.770Z,99353.25
2022-09-28T05:21:25.418Z,99353.25
2022-09-28T05:23:52.285Z,99355.69
2022-09-28T05:26:18.944Z,99355.25
2022-09-28T05:28:46.224Z,99352.59
2022-09-28T05:31:12.799Z,99352.00
2022-09-28T05:33:39.559Z,99351.38
2022-09-28T05:36:09.251Z,99346.53
2022-09-28T05:38:35.848Z,99343.47
2022-09-28T05:41:06.405Z,99335.16
2022-09-28T05:43:33.461Z,99331.50
2022-09-28T05:46:00.665Z,99334.38
2022-09-28T05:48:28.342Z,99336.19
2022-09-28T05:50:55.042Z,99335.16
2022-09-28T05:53:21.784Z,99332.13
2022-09-28T05:55:48.728Z,99331.09
2022-09-28T05:58:15.541Z,99325.44
2022-09-28T06:00:42.497Z,99322.16
2022-09-28T06:03:12.215Z,99316.09
2022-09-28T06:05:42.316Z,99306.94
2022-09-28T06:08:13.283Z,99311.41
2022-09-28T06:10:43.437Z,99309.38
2022-09-28T06:13:12.098Z,99307.72
2022-09-28T06:15:39.257Z,99302.69
2022-09-28T06:18:10.195Z,99305.31
2022-09-28T06:20:38.884Z,99304.09
2022-09-28T06:23:05.527Z,99297.59
2022-09-28T06:25:32.296Z,99295.38
2022-09-28T06:28:06.705Z,99288.25
2022-09-28T06:30:38.394Z,99286.63
2022-09-28T06:33:06.330Z,99279.50
2022-09-28T06:35:32.985Z,99284.78
2022-09-28T06:38:00.334Z,99287.03
2022-09-28T06:40:27.638Z,99289.03
2022-09-28T06:43:10.195Z,99287.63
2022-09-28T06:45:37.761Z,99289.25
2022-09-28T06:48:05.186Z,99290.88
2022-09-28T06:50:35.984Z,99284.78
2022-09-28T06:53:02.663Z,99285.59
2022-09-28T06:55:29.967Z,99286.59
2022-09-28T06:58:01.480Z,99278.91
2022-09-28T07:00:29.410Z,99278.91
2022-09-28T07:02:55.962Z,99275.25
2022-09-28T07:05:27.093Z,99283.19
2022-09-28T07:07:55.309Z,99285.81
2022-09-28T07:10:23.410Z,99288.03
2022-09-28T07:12:51.581Z,99294.97
2022-09-28T07:15:18.663Z,99285.81
2022-09-28T07:17:58.341Z,99285.00
2022-09-28T07:20:27.798Z,99285.00
2022-09-28T07:22:55.236Z,99285.00
2022-09-28T07:25:23.172Z,99286.00
2022-09-28T07:27:50.179Z,99287.63
2022-09-28T07:30:17.005Z,99288.88
2022-09-28T07:32:45.618Z,99295.97
2022-09-28T07:35:12.205Z,99297.59
2022-09-28T07:37:38.796Z,99291.72
2022-09-28T07:40:26.185Z,99289.25
2022-09-28T07:42:53.292Z,99298.41
2022-09-28T07:45:25.907Z,99297.00
2022-09-28T07:47:56.127Z,99301.47
2022-09-28T07:50:22.919Z,99299.03
2022-09-28T07:52:49.692Z,99297.19
2022-09-28T07:55:16.260Z,99297.19
2022-09-28T07:57:44.427Z,99304.72
2022-09-28T08:00:11.551Z,99304.13
2022-09-28T08:02:38.195Z,99300.25
2022-09-28T08:05:05.257Z,99305.94
2022-09-28T08:07:32.541Z,99311.81
2022-09-28T08:09:59.149Z,99305.75
2022-09-28T08:12:25.739Z,99316.31
2022-09-28T08:14:52.732Z,99313.47
2022-09-28T08:17:19.379Z,99309.81
2022-09-28T08:20:04.409Z,99321.19
2022-09-28T08:22:32.352Z,99316.91
2022-09-28T08:24:58.996Z,99327.28
2022-09-28T08:27:25.568Z,99320.75
2022-09-28T08:29:52.113Z,99325.25
2022-09-28T08:32:19.566Z,99323.41
2022-09-28T08:34:46.109Z,99326.88
2022-09-28T08:37:12.694Z,99328.50
2022-09-28T08:39:39.319Z,99325.25
2022-09-28T08:42:32.726Z,99325.25
2022-09-28T08:45:23.026Z,99316.50
2022-09-28T08:48:15.412Z,99324.03
2022-09-28T08:50:49.330Z,99320.97
2022-09-28T08:53:48.386Z,99326.69
2022-09-28T08:56:30.893Z,99319.97
2022-09-28T08:59:03.379Z,99312.84
2022-09-28T09:01:39.376Z,99319.16
2022-09-28T09:04:07.201Z,99304.31
2022-09-28T09:06:56.572Z,99305.75
2022-09-28T09:10:05.072Z,99307.34
2022-09-28T09:12:48.463Z,99304.13
2022-09-28T09:15:20.179Z,99302.91
2022-09-28T09:18:00.795Z,99304.13
2022-09-28T09:20:42.592Z,99300.66
2022-09-28T09:23:18.499Z,99305.13
2022-09-28T09:25:55.166Z,99305.75
2022-09-28T09:28:43.960Z,99308.19
2022-09-28T09:31:29.356Z,99305.75
2022-09-28T09:34:11.247Z,99309.81
2022-09-28T09:36:49.695Z,99306.16
2022-09-28T09:39:25.328Z,99302.72
2022-09-28T09:42:40.452Z,99310.00
2022-09-28T09:45:31.450Z,99308.97
2022-09-28T09:48:06.622Z,99311.03
2022-09-28T09:50:51.699Z,99314.69
2022-09-28T09:53:41.481Z,99312.25
2022-09-28T09:56:17.076Z,99312.66
2022-09-28T09:58:50.110Z,99308.97
2022-09-28T10:01:20.334Z,99305.94
2022-09-28T10:03:48.212Z,99308.97
2022-09-28T10:06:22.204Z,99311.22
2022-09-28T10:08:53.882Z,99305.34
2022-09-28T10:11:29.015Z,99302.91
2022-09-28T10:13:55.813Z,99306.16
2022-09-28T10:16:22.458Z,99305.34
2022-09-28T10:18:49.793Z,99309.59
2022-09-28T10:21:18.864Z,99310.19
2022-09-28T10:23:55.066Z,99306.16
2022-09-28T10:26:29.557Z,99303.69
2022-09-28T10:29:04.581Z,99303.31
2022-09-28T10:31:42.777Z,99305.94
2022-09-28T10:34:14.265Z,99308.78
2022-09-28T10:36:59.982Z,99305.53
2022-09-28T10:39:31.691Z,99310.00
2022-09-28T10:42:02.617Z,99301.25
2022-09-28T10:44:31.765Z,99304.13
2022-09-28T10:47:08.841Z,99303.09
2022-09-28T10:49:46.533Z,99306.78
2022-09-28T10:52:36.547Z,99311.81
2022-09-28T10:55:21.359Z,99309.41
2022-09-28T10:57:48.281Z,99313.03
2022-09-28T11:00:34.557Z,99309.19
2022-09-28T11:03:02.323Z,99312.03
2022-09-28T11:05:30.019Z,99315.09
2022-09-28T11:07:58.518Z,99307.75
2022-09-28T11:10:27.160Z,99310.63
2022-09-28T11:12:54.670Z,99308.56
2022-09-28T11:15:32.229Z,99318.13
2022-09-28T11:18:31.419Z,99317.91
2022-09-28T11:21:28.081Z,99308.97
2022-09-28T11:24:06.978Z,99308.19
2022-09-28T11:26:47.916Z,99306.97
2022-09-28T11:29:41.876Z,99302.28
2022-09-28T11:32:14.889Z,99306.53
2022-09-28T11:34:59.106Z,99308.78
2022-09-28T11:38:05.692Z,99301.50
2022-09-28T11:41:16.856Z,99307.75
2022-09-28T11:43:58.749Z,99307.75
2022-09-28T11:46:44.513Z,99307.56
2022-09-28T11:49:20.326Z,99303.69
2022-09-28T11:51:48.580Z,99298.41
2022-09-28T11:54:43.094Z,99301.69
2022-09-28T11:57:15.995Z,99299.84
2022-09-28T11:59:54.652Z,99298.84
2022-09-28T12:02:26.085Z,99307.75
2022-09-28T12:05:09.252Z,99300.66
2022-09-28T12:07:39.820Z,99306.34
2022-09-28T12:10:09.972Z,99303.69
2022-09-28T12:12:48.104Z,99307.75
2022-09-28T12:15:21.695Z,99306.78
2022-09-28T12:17:57.458Z,99308.97
2022-09-28T12:20:30.137Z,99313.47
2022-09-28T12:22:59.972Z,99316.91
2022-09-28T12:25:28.989Z,99318.94
2022-09-28T12:28:06.408Z,99319.34
2022-09-28T12:30:37.728Z,99314.69
2022-09-28T12:33:09.282Z,99319.97
2022-09-28T12:36:14.815Z,99322.63
2022-09-28T12:39:17.698Z,99322.81
2022-09-28T12:42:12.346Z,99326.69
2022-09-28T12:44:46.003Z,99327.06
2022-09-28T12:47:50.786Z,99324.44
2022-09-28T12:50:42.708Z,99322.81
2022-09-28T12:53:20.083Z,99317.72
2022-09-28T12:56:06.250Z,99334.81
2022-09-28T12:59:12.333Z,99328.91
2022-09-28T13:02:12.941Z,99326.88
2022-09-28T13:05:01.387Z,99320.56
2022-09-28T13:07:50.718Z,99321.19
2022-09-28T13:10:22.720Z,99318.31
2022-09-28T13:12:49.255Z,99321.59
2022-09-28T13:15:32.169Z,99315.50
2022-09-28T13:18:05.072Z,99320.78
2022-09-28T13:20:35.744Z,99317.09
2022-09-28T13:23:10.098Z,99322.19
2022-09-28T13:25:40.956Z,99322.19
2022-09-28T13:28:07.695Z,99322.00
2022-09-28T13:30:36.684Z,99318.75
2022-09-28T13:33:05.429Z,99319.56
2022-09-28T13:35:33.427Z,99325.47
2022-09-28T13:38:18.294Z,99313.03
2022-09-28T13:41:06.755Z,99324.44
2022-09-28T13:44:10.666Z,99328.09
2022-09-28T13:46:52.255Z,99327.91
2022-09-28T13:49:45.571Z,99334.41
2022-09-28T13:52:27.228Z,99328.50
2022-09-28T13:55:09.679Z,99325.25
2022-09-28T13:57:48.497Z,99331.97
2022-09-28T14:00:38.669Z,99328.09
2022-09-28T14:03:27.342Z,99327.06
2022-09-28T14:06:21.581Z,99327.91
2022-09-28T14:09:12.748Z,99329.72
2022-09-28T14:11:42.551Z,99330.13
2022-09-28T14:14:12.083Z,99335.41
2022-09-28T14:16:39.761Z,99339.06
2022-09-28T14:19:24.329Z,99338.66
2022-09-28T14:22:28.533Z,99333.56
2022-09-28T14:25:01.289Z,99333.97
2022-09-28T14:27:53.036Z,99341.50
2022-09-28T14:30:25.788Z,99341.31
2022-09-28T14:32:56.169Z,99341.13
2022-09-28T14:35:41.928Z,99347.19
2022-09-28T14:38:33.643Z,99350.88
2022-09-28T14:41:10.105Z,99349.44
2022-09-28T14:44:06.548Z,99360.00
2022-09-28T14:46:38.055Z,99365.28
2022-09-28T14:49:04.658Z,99373.41
2022-09-28T14:51:31.202Z,99370.78
2022-09-28T14:54:17.211Z,99372.59
2022-09-28T14:56:57.930Z,99365.88
2022-09-28T14:59:29.565Z,99369.94
2022-09-28T15:02:16.975Z,99375.88
2022-09-28T15:04:53.254Z,99378.69
2022-09-28T15:07:34.282Z,99381.53
2022-09-28T15:10:02.471Z,99380.94
2022-09-28T15:12:32.223Z,99383.16
2022-09-28T15:15:04.723Z,99382.56
2022-09-28T15:17:40.242Z,99385.81
2022-09-28T15:20:25.842Z,99391.09
2022-09-28T15:22:57.373Z,99390.47
2022-09-28T15:25:26.819Z,99388.03
2022-09-28T15:27:56.135Z,99395.16
2022-09-28T15:30:31.965Z,99397.19
2022-09-28T15:33:19.079Z,99402.84
2022-09-28T15:36:01.403Z,99399.41
2022-09-28T15:38:28.294Z,99399.63
2022-09-28T15:40:56.101Z,99404.06
2022-09-28T15:43:26.802Z,99401.63
2022-09-28T15:46:15.406Z,99395.56
2022-09-28T15:48:52.822Z,99402.25
2022-09-28T15:51:22.076Z,99405.31
2022-09-28T15:54:03.016Z,99402.66
2022-09-28T15:56:30.356Z,99397.56
2022-09-28T15:59:15.414Z,99411.41
2022-09-28T16:01:45.531Z,99417.72
2022-09-28T16:05:00.787Z,99407.94
2022-09-28T16:07:56.576Z,99405.94
2022-09-28T16:10:33.554Z,99414.47
2022-09-28T16:13:15.660Z,99415.28
2022-09-28T16:15:42.708Z,99427.28
2022-09-28T16:18:19.019Z,99425.44
2022-09-28T16:20:48.363Z,99424.63
2022-09-28T16:23:17.870Z,99430.94
2022-09-28T16:25:49.509Z,99430.94
2022-09-28T16:28:38.299Z,99435.19
2022-09-28T16:31:07.645Z,99437.84
2022-09-28T16:33:54.230Z,99439.47
2022-09-28T16:36:22.515Z,99437.03
2022-09-28T16:38:49.590Z,99447.59
2022-09-28T16:41:19.552Z,99445.97
2022-09-28T16:43:46.591Z,99451.25
2022-09-28T16:46:16.043Z,99456.34
2022-09-28T16:48:49.936Z,99442.72
2022-09-28T16:51:22.035Z,99448.00
2022-09-28T16:54:07.780Z,99447.19
2022-09-28T16:56:35.353Z,99453.47
2022-09-28T16:59:02.437Z,99458.97
2022-09-28T17:01:32.098Z,99453.47
2022-09-28T17:03:58.855Z,99462.41
2022-09-28T17:06:25.601Z,99461.59
2022-09-28T17:08:52.649Z,99465.28
2022-09-28T17:11:24.220Z,99465.28
2022-09-28T17:13:51.848Z,99465.03
2022-09-28T17:16:49.379Z,99469.50
2022-09-28T17:19:22.310Z,99470.53
2022-09-28T17:21:49.467Z,99470.53
2022-09-28T17:24:16.200Z,99472.16
2022-09-28T17:26:44.424Z,99471.53
2022-09-28T17:29:14.678Z,99476.59
2022-09-28T17:31:45.710Z,99483.28
2022-09-28T17:34:15.300Z,99478.81
2022-09-28T17:36:42.964Z,99479.22
2022-09-28T17:39:12.395Z,99483.25
2022-09-28T17:41:40.180Z,99485.69
2022-09-28T17:44:06.879Z,99488.75
2022-09-28T17:46:39.637Z,99489.38
2022-09-28T17:49:08.095Z,99486.34
2022-09-28T17:51:37.516Z,99494.25
2022-09-28T17:54:06.089Z,99500.34
2022-09-28T17:56:32.983Z,99501.72
2022-09-28T17:59:01.484Z,99496.84
2022-09-28T18:01:33.978Z,99509.63
2022-09-28T18:04:05.394Z,99505.19
2022-09-28T18:06:37.263Z,99509.22
2022-09-28T18:09:05.008Z,99518.94
2022-09-28T18:11:32.275Z,99517.31
2022-09-28T18:13:59.029Z,99515.66
2022-09-28T18:16:27.917Z,99516.06
2022-09-28T18:18:54.885Z,99514.81
2022-09-28T18:21:21.494Z,99523.41
2022-09-28T18:23:48.090Z,99529.69
2022-09-28T18:26:15.858Z,99526.84
2022-09-28T18:28:42.522Z,99531.13
2022-09-28T18:31:10.613Z,99533.97
2022-09-28T18:33:37.853Z,99534.34
2022-09-28T18:36:06.186Z,99540.63
2022-09-28T18:38:35.490Z,99546.53
2022-09-28T18:41:16.586Z,99544.72
2022-09-28T18:43:48.963Z,99540.03
2022-09-28T18:46:17.440Z,99534.75
2022-09-28T18:48:44.369Z,99540.47
2022-09-28T18:51:12.362Z,99551.47
2022-09-28T18:53:39.672Z,99544.16
2022-09-28T18:56:08.251Z,99546.41
2022-09-28T18:58:39.881Z,99550.06
2022-09-28T19:01:28.325Z,99551.28
2022-09-28T19:03:55.248Z,99545.34
2022-09-28T19:06:21.832Z,99553.50
2022-09-28T19:08:53.150Z,99552.66
2022-09-28T19:11:19.834Z,99557.31
2022-09-28T19:13:46.416Z,99561.41
2022-09-28T19:16:18.928Z,99559.56
2022-09-28T19:18:45.579Z,99558.38
2022-09-28T19:21:14.127Z,99565.50
2022-09-28T19:23:45.749Z,99568.50
2022-09-28T19:26:17.935Z,99565.22
2022-09-28T19:28:44.596Z,99573.16
2022-09-28T19:31:11.648Z,99571.94
2022-09-28T19:33:39.346Z,99580.66
2022-09-28T19:36:13.563Z,99571.31
2022-09-28T19:38:40.860Z,99575.75
2022-09-28T19:41:12.860Z,99579.03
2022-09-28T19:43:43.661Z,99577.81
2022-09-28T19:46:10.780Z,99581.28
2022-09-28T19:48:37.398Z,99584.72
2022-09-28T19:51:05.991Z,99581.72
2022-09-28T19:53:38.002Z,99587.59
2022-09-28T19:56:05.587Z,99582.53
2022-09-28T19:58:34.873Z,99587.59
2022-09-28T20:01:08.475Z,99584.34
2022-09-28T20:03:35.173Z,99586.34
2022-09-28T20:06:02.126Z,99586.34
2022-09-28T20:08:30.223Z,99596.31
2022-09-28T20:10:59.625Z,99598.53
2022-09-28T20:13:34.249Z,99597.88
2022-09-28T20:16:12.035Z,99597.69
2022-09-28T20:18:40.222Z,99609.09
2022-09-28T20:21:09.539Z,99605.81
2022-09-28T20:23:40.295Z,99609.09
2022-09-28T20:26:09.165Z,99609.09
2022-09-28T20:28:35.740Z,99616.81
2022-09-28T20:31:11.707Z,99615.16
2022-09-28T20:33:39.060Z,99612.72
2022-09-28T20:36:12.255Z,99623.50
2022-09-28T20:38:40.593Z,99622.06
2022-09-28T20:41:08.484Z,99619.78
2022-09-28T20:43:35.279Z,99615.53
2022-09-28T20:46:03.434Z,99615.72
2022-09-28T20:48:30.536Z,99616.31
2022-09-28T20:51:03.244Z,99623.44
2022-09-28T20:53:33.347Z,99622.81
2022-09-28T20:56:07.830Z,99626.47
2022-09-28T20:58:34.679Z,99627.66
2022-09-28T21:01:09.598Z,99624.38
2022-09-28T21:03:37.668Z,99629.22
2022-09-28T21:06:10.038Z,99628.22
2022-09-28T21:08:38.687Z,99636.59
2022-09-28T21:11:06.575Z,99632.44
2022-09-28T21:13:33.488Z,99642.16
2022-09-28T21:16:04.214Z,99637.16
2022-09-28T21:18:30.861Z,99642.63
2022-09-28T21:20:57.462Z,99641.41
2022-09-28T21:23:25.067Z,99641.66
2022-09-28T21:26:08.154Z,99648.59
2022-09-28T21:28:35.661Z,99648.41
2022-09-28T21:31:04.197Z,99650.03
2022-09-28T21:33:30.808Z,99654.47
2022-09-28T21:36:04.357Z,99651.84
2022-09-28T21:38:31.283Z,99653.88
2022-09-28T21:40:59.330Z,99655.50
2022-09-28T21:43:31.218Z,99652.66
2022-09-28T21:45:58.265Z,99654.47
2022-09-28T21:48:26.828Z,99660.78
2022-09-28T21:50:57.047Z,99658.97
2022-09-28T21:53:29.045Z,99662.41
2022-09-28T21:55:56.677Z,99666.88
2022-09-28T21:58:25.271Z,99665.03
2022-09-28T22:01:14.796Z,99667.06
2022-09-28T22:03:43.963Z,99668.03
2022-09-28T22:06:11.204Z,99670.69
2022-09-28T22:08:38.326Z,99669.25
2022-09-28T22:11:13.105Z,99675.13
2022-09-28T22:13:42.594Z,99680.19
2022-09-28T22:16:10.675Z,99681.75
2022-09-28T22:18:37.388Z,99685.88
2022-09-28T22:21:06.619Z,99678.38
2022-09-28T22:23:34.037Z,99684.06
2022-09-28T22:26:07.053Z,99683.13
2022-09-28T22:28:34.297Z,99686.38
2022-09-28T22:31:01.155Z,99690.66
2022-09-28T22:33:27.978Z,99689.66
2022-09-28T22:35:55.317Z,99689.66
2022-09-28T22:38:24.162Z,99686.38
2022-09-28T22:40:53.094Z,99684.38
2022-09-28T22:43:19.844Z,99686.03
2022-09-28T22:45:46.757Z,99692.31
2022-09-28T22:48:13.575Z,99697.56
2022-09-28T22:50:48.478Z,99696.75
2022-09-28T22:53:15.234Z,99696.94
2022-09-28T22:55:42.474Z,99693.50
2022-09-28T22:58:09.438Z,99702.22
2022-09-28T23:00:36.099Z,99708.31
2022-09-28T23:03:02.758Z,99701.41
2022-09-28T23:05:29.406Z,99702.22
2022-09-28T23:07:55.973Z,99704.66
2022-09-28T23:10:22.571Z,99705.69
2022-09-28T23:12:49.354Z,99704.06
2022-09-28T23:15:16.142Z,99702.44
2022-09-28T23:17:42.713Z,99700.75
2022-09-28T23:20:09.538Z,99702.44
2022-09-28T23:22:36.200Z,99693.69
2022-09-28T23:25:02.824Z,99702.59
2022-09-28T23:27:29.397Z,99698.13
2022-09-28T23:29:56.044Z,99697.34
2022-09-28T23:32:22.758Z,99699.97
2022-09-28T23:34:49.413Z,99704.22
2022-09-28T23:37:15.989Z,99703.63
2022-09-28T23:39:42.575Z,99708.91
2022-09-28T23:42:09.178Z,99704.78
2022-09-28T23:44:36.474Z,99701.34
2022-09-28T23:47:03.122Z,99704.00
2022-09-28T23:49:29.865Z,99708.25
2022-09-28T23:51:56.422Z,99708.91
2022-09-28T23:54:23.077Z,99700.34
2022-09-28T23:56:49.816Z,99707.44
2022-09-28T23:59:16.428Z,99704.00
